Time;durP1;ratioP1;P1;durP2;ratioP2;P2;SDS_P1;SDS_P2;PMS_P1;PMS_P2;Temp;Humidity;BMP_temperature;BMP_pressure;BME280_temperature;BME280_humidity;BME280_pressure;Samples;Min_cycle;Max_cycle;Signal;HPM_P1;HPM_P2
2021/01/06 00:02:20;;;;;;;16.87;11.27;;;1.50;94.10;;;;;;4900368;28;20609;-75
2021/01/06 00:04:43;;;;;;;19.03;11.90;;;1.50;93.30;;;;;;4883568;28;20279;-74
2021/01/06 00:07:05;;;;;;;16.57;10.87;;;1.50;92.60;;;;;;4902549;28;20606;-74
2021/01/06 00:09:27;;;;;;;19.80;11.83;;;1.50;92.80;;;;;;4902926;28;20193;-74
2021/01/06 00:11:49;;;;;;;15.00;10.83;;;1.50;91.70;;;;;;4900028;28;20750;-73
2021/01/06 00:14:15;;;;;;;18.97;12.47;;;1.50;91.90;;;;;;4903947;28;20245;-74
2021/01/06 00:16:37;;;;;;;20.77;12.30;;;1.50;91.90;;;;;;4902224;28;20584;-74
2021/01/06 00:18:59;;;;;;;16.80;11.20;;;1.50;92.20;;;;;;4900491;28;20255;-75
2021/01/06 00:21:22;;;;;;;18.50;12.53;;;1.50;91.40;;;;;;4903110;28;20620;-74
2021/01/06 00:23:44;;;;;;;19.57;13.40;;;1.50;91.90;;;;;;4898215;28;20292;-79
2021/01/06 00:26:07;;;;;;;21.97;13.93;;;1.50;92.00;;;;;;4903023;28;20219;-74
2021/01/06 00:28:29;;;;;;;20.30;12.73;;;1.50;91.90;;;;;;4902248;28;20181;-73
2021/01/06 00:30:52;;;;;;;19.20;12.50;;;1.50;91.90;;;;;;4911746;28;20238;-75
2021/01/06 00:33:18;;;;;;;19.80;13.30;;;1.50;92.20;;;;;;4893950;28;20200;-74
2021/01/06 00:35:40;;;;;;;18.57;12.50;;;1.50;92.70;;;;;;4900727;28;20716;-74
2021/01/06 00:38:04;;;;;;;20.27;14.20;;;1.60;92.70;;;;;;4901867;28;20223;-73
2021/01/06 00:40:29;;;;;;;17.53;13.17;;;1.60;92.20;;;;;;4903846;28;21434;-73
2021/01/06 00:42:51;;;;;;;20.47;13.33;;;1.60;92.80;;;;;;4905653;28;20192;-73
2021/01/06 00:45:16;;;;;;;17.63;11.83;;;1.60;91.40;;;;;;4903209;28;21053;-74
2021/01/06 00:47:38;;;;;;;16.10;11.33;;;1.60;91.70;;;;;;4912011;28;20721;-74
2021/01/06 00:50:01;;;;;;;20.83;12.93;;;1.60;91.70;;;;;;4905323;28;20207;-74
2021/01/06 00:52:23;;;;;;;20.67;12.50;;;1.60;91.40;;;;;;4906260;28;20662;-74
2021/01/06 00:54:48;;;;;;;22.33;13.47;;;1.60;91.50;;;;;;4908225;28;20180;-74
2021/01/06 00:57:11;;;;;;;19.30;13.20;;;1.50;90.90;;;;;;4905074;28;20192;-73
2021/01/06 00:59:33;;;;;;;20.73;13.87;;;1.60;91.00;;;;;;4886911;28;20194;-81
2021/01/06 01:01:56;;;;;;;18.97;12.97;;;1.60;90.70;;;;;;4904075;28;20188;-74
2021/01/06 01:04:18;;;;;;;20.13;13.77;;;1.60;90.50;;;;;;4906578;28;20674;-79
2021/01/06 01:06:41;;;;;;;17.07;12.13;;;1.60;90.60;;;;;;4930989;28;20232;-74
2021/01/06 01:09:05;;;;;;;18.03;13.23;;;1.50;90.10;;;;;;4908522;28;20200;-78
2021/01/06 01:11:28;;;;;;;19.00;12.23;;;1.50;89.80;;;;;;4906893;28;20634;-73
2021/01/06 01:13:51;;;;;;;19.07;12.53;;;1.50;89.00;;;;;;4904506;28;20214;-74
2021/01/06 01:16:13;;;;;;;17.43;11.67;;;1.30;87.50;;;;;;4905639;28;20200;-74
2021/01/06 01:18:35;;;;;;;19.83;12.13;;;1.30;86.90;;;;;;4902569;28;21041;-75
2021/01/06 01:20:59;;;;;;;19.07;13.10;;;1.00;82.30;;;;;;4880723;28;20620;-74
2021/01/06 01:23:23;;;;;;;21.23;13.67;;;1.00;82.30;;;;;;4907164;28;20604;-74
2021/01/06 01:25:46;;;;;;;21.87;13.00;;;0.90;80.70;;;;;;4912013;28;20652;-74
2021/01/06 01:28:09;;;;;;;20.30;13.17;;;0.70;79.80;;;;;;4893875;28;20196;-74
2021/01/06 01:30:32;;;;;;;20.00;12.23;;;0.60;81.10;;;;;;4906146;28;20746;-75
2021/01/06 01:32:54;;;;;;;21.03;13.87;;;0.40;81.10;;;;;;4932025;28;20619;-74
2021/01/06 01:35:19;;;;;;;22.80;13.93;;;0.30;81.60;;;;;;4888540;28;20223;-74
2021/01/06 01:37:42;;;;;;;21.73;14.03;;;0.00;82.90;;;;;;4906777;28;21552;-74
2021/01/06 01:40:06;;;;;;;22.13;14.70;;;0.00;84.30;;;;;;4911114;28;20645;-74
2021/01/06 01:42:28;;;;;;;24.27;14.70;;;-0.10;86.90;;;;;;4906737;28;20728;-74
2021/01/06 01:44:59;;;;;;;24.33;15.70;;;0.30;89.60;;;;;;4908932;28;20679;-74
2021/01/06 01:47:25;;;;;;;26.33;16.23;;;-0.40;91.50;;;;;;4914782;28;20628;-74
2021/01/06 01:49:50;;;;;;;24.97;16.37;;;-0.30;93.10;;;;;;4910520;28;20662;-74
2021/01/06 01:52:22;;;;;;;29.20;20.17;;;-0.50;93.80;;;;;;4895960;28;21109;-75
2021/01/06 01:54:45;;;;;;;27.13;17.43;;;-0.60;95.50;;;;;;4884634;28;20625;-78
2021/01/06 01:57:12;;;;;;;27.77;17.53;;;-0.70;99.30;;;;;;4913276;28;21192;-74
2021/01/06 01:59:40;;;;;;;27.87;18.43;;;-0.60;99.80;;;;;;4904695;28;20597;-76
2021/01/06 02:02:10;;;;;;;28.40;18.07;;;-0.60;99.90;;;;;;4906506;28;21119;-73
2021/01/06 02:04:38;;;;;;;28.87;17.50;;;-0.40;99.90;;;;;;4903845;28;20614;-79
2021/01/06 02:07:07;;;;;;;24.43;16.77;;;-0.50;99.90;;;;;;4904778;28;20598;-75
2021/01/06 02:09:35;;;;;;;26.60;17.23;;;-0.40;99.90;;;;;;4889401;28;20657;-74
2021/01/06 02:12:07;;;;;;;23.67;15.40;;;-0.40;99.90;;;;;;4906549;28;20613;-74
2021/01/06 02:14:37;;;;;;;27.43;16.87;;;-0.30;99.90;;;;;;4903699;28;20585;-74
2021/01/06 02:17:04;;;;;;;28.43;16.90;;;-0.20;99.90;;;;;;4903047;28;21079;-74
2021/01/06 02:19:31;;;;;;;27.63;17.77;;;-0.20;99.90;;;;;;4904268;28;20625;-75
2021/01/06 02:21:54;;;;;;;24.50;15.50;;;0.10;99.90;;;;;;4905540;28;20606;-74
2021/01/06 02:24:17;;;;;;;23.70;15.03;;;0.00;99.90;;;;;;4911702;28;20616;-74
2021/01/06 02:26:39;;;;;;;23.03;13.77;;;0.00;99.90;;;;;;4903507;28;20646;-75
2021/01/06 02:29:01;;;;;;;23.63;14.73;;;0.00;99.90;;;;;;4904342;28;21162;-74
2021/01/06 02:31:24;;;;;;;25.57;14.63;;;0.10;99.90;;;;;;4903387;28;20697;-74
2021/01/06 02:33:49;;;;;;;24.50;16.07;;;0.20;99.90;;;;;;4901244;28;20622;-74
2021/01/06 02:36:12;;;;;;;22.73;14.37;;;0.20;99.90;;;;;;4884387;28;20633;-74
2021/01/06 02:38:35;;;;;;;23.47;15.40;;;0.40;99.90;;;;;;4906922;28;21048;-76
2021/01/06 02:40:58;;;;;;;23.57;15.17;;;0.40;99.90;;;;;;4905614;28;20609;-74
2021/01/06 02:43:21;;;;;;;25.80;16.17;;;0.40;99.90;;;;;;4910931;28;20191;-74
2021/01/06 02:45:44;;;;;;;26.90;16.43;;;0.40;99.90;;;;;;4883062;28;20275;-74
2021/01/06 02:48:07;;;;;;;25.50;16.07;;;0.50;99.90;;;;;;4908881;28;20187;-74
2021/01/06 02:50:31;;;;;;;25.03;16.77;;;0.50;99.90;;;;;;4905474;28;20646;-74
2021/01/06 02:52:56;;;;;;;22.67;15.90;;;0.60;99.90;;;;;;4905377;28;20221;-74
2021/01/06 02:55:20;;;;;;;24.23;16.10;;;0.60;99.90;;;;;;4901235;28;20557;-74
2021/01/06 02:57:43;;;;;;;24.87;16.07;;;0.60;99.90;;;;;;4899519;28;20187;-74
2021/01/06 03:00:07;;;;;;;25.97;17.73;;;0.70;99.90;;;;;;4906186;28;20184;-75
2021/01/06 03:02:30;;;;;;;24.20;16.33;;;0.70;99.90;;;;;;4903394;28;20637;-74
2021/01/06 03:04:59;;;;;;;23.73;15.73;;;0.70;99.90;;;;;;4905772;28;20621;-73
2021/01/06 03:07:24;;;;;;;21.67;14.53;;;0.70;99.90;;;;;;4902642;28;20624;-75
2021/01/06 03:09:46;;;;;;;20.07;14.03;;;0.80;99.90;;;;;;4883162;28;21059;-76
2021/01/06 03:12:12;;;;;;;21.27;14.57;;;0.80;99.90;;;;;;4887987;28;20621;-74
2021/01/06 03:14:36;;;;;;;20.87;14.43;;;0.90;99.90;;;;;;4905642;28;20184;-75
2021/01/06 03:17:00;;;;;;;22.33;14.60;;;0.90;99.90;;;;;;4886725;28;21058;-74
2021/01/06 03:19:25;;;;;;;22.40;14.40;;;0.90;99.90;;;;;;4903829;28;20629;-74
2021/01/06 03:21:49;;;;;;;22.93;15.83;;;0.90;99.90;;;;;;4903694;28;20185;-74
2021/01/06 03:24:14;;;;;;;25.07;15.73;;;0.90;99.90;;;;;;4904262;28;20647;-74
2021/01/06 03:26:37;;;;;;;22.40;14.93;;;0.90;99.90;;;;;;4907406;28;20629;-74
2021/01/06 03:29:00;;;;;;;22.43;15.80;;;0.90;99.90;;;;;;4901420;28;20614;-75
2021/01/06 03:31:28;;;;;;;23.67;16.17;;;0.90;99.90;;;;;;4902315;28;20735;-74
2021/01/06 03:33:57;;;;;;;24.67;16.30;;;1.00;99.90;;;;;;4901904;28;20581;-75
2021/01/06 03:36:24;;;;;;;22.93;15.60;;;0.90;99.90;;;;;;4904378;28;20264;-74
2021/01/06 03:38:51;;;;;;;25.43;17.40;;;1.00;99.90;;;;;;4904782;28;20655;-75
2021/01/06 03:41:14;;;;;;;27.40;17.77;;;1.00;99.90;;;;;;4904698;28;20730;-74
2021/01/06 03:43:42;;;;;;;25.20;17.53;;;1.00;99.90;;;;;;4864633;28;20242;-74
2021/01/06 03:46:18;;;;;;;26.77;19.40;;;1.10;99.90;;;;;;4904808;28;20267;-74
2021/01/06 03:48:58;;;;;;;28.97;19.50;;;1.00;99.90;;;;;;4902177;28;20185;-75
2021/01/06 03:51:28;;;;;;;26.17;18.13;;;1.10;99.90;;;;;;4905263;28;20638;-75
2021/01/06 03:53:54;;;;;;;24.97;17.87;;;1.10;99.90;;;;;;4904091;28;20288;-76
2021/01/06 03:56:22;;;;;;;25.00;17.83;;;1.20;99.90;;;;;;4898226;28;21235;-74
2021/01/06 03:58:51;;;;;;;25.33;18.57;;;1.20;99.90;;;;;;4905535;28;20964;-75
2021/01/06 04:01:40;;;;;;;28.63;17.87;;;1.20;99.90;;;;;;4891945;28;20203;-74
2021/01/06 04:04:11;;;;;;;26.43;17.77;;;1.30;99.90;;;;;;4898940;28;20265;-73
2021/01/06 04:06:36;;;;;;;24.73;17.17;;;1.20;99.90;;;;;;4899337;28;20207;-79
2021/01/06 04:09:03;;;;;;;28.13;17.93;;;1.20;99.90;;;;;;4896647;28;20735;-74
2021/01/06 04:11:29;;;;;;;25.87;17.57;;;1.20;99.90;;;;;;4883540;28;20668;-74
2021/01/06 04:13:51;;;;;;;30.43;19.83;;;1.20;99.90;;;;;;4903038;28;20181;-74
2021/01/06 04:16:14;;;;;;;26.27;19.07;;;1.20;99.90;;;;;;4884221;28;20196;-74
2021/01/06 04:18:37;;;;;;;25.03;18.37;;;1.20;99.90;;;;;;4902872;28;20184;-75
2021/01/06 04:21:03;;;;;;;27.27;19.77;;;1.20;99.90;;;;;;4904010;28;20207;-75
2021/01/06 04:23:25;;;;;;;29.33;20.10;;;1.20;99.90;;;;;;4899237;28;20247;-74
2021/01/06 04:25:50;;;;;;;29.77;20.40;;;1.10;99.90;;;;;;4915764;28;20207;-74
2021/01/06 04:28:14;;;;;;;30.17;21.83;;;1.10;99.90;;;;;;4908469;28;20192;-74
2021/01/06 04:30:38;;;;;;;29.20;19.50;;;1.20;99.90;;;;;;4887038;28;20239;-76
2021/01/06 04:33:04;;;;;;;27.47;19.77;;;1.10;99.90;;;;;;4905721;28;20188;-74
2021/01/06 04:35:30;;;;;;;31.90;21.20;;;1.20;99.90;;;;;;4907087;28;20213;-79
2021/01/06 04:37:53;;;;;;;34.70;23.50;;;1.20;99.90;;;;;;4909124;28;20204;-74
2021/01/06 04:40:17;;;;;;;33.53;23.20;;;1.20;99.90;;;;;;4904877;28;20191;-75
2021/01/06 04:42:40;;;;;;;37.27;24.67;;;1.30;99.90;;;;;;4902938;28;20727;-74
2021/01/06 04:45:08;;;;;;;36.13;23.67;;;1.20;99.90;;;;;;4906214;28;20204;-74
2021/01/06 04:48:11;;;;;;;35.30;21.80;;;1.30;99.90;;;;;;4907281;28;20562;-73
2021/01/06 04:51:14;;;;;;;35.17;22.93;;;1.30;99.90;;;;;;4905468;28;20712;-77
2021/01/06 04:53:57;;;;;;;36.37;23.17;;;1.30;99.90;;;;;;4891110;28;20224;-76
2021/01/06 04:56:39;;;;;;;40.63;26.60;;;1.30;99.90;;;;;;4907540;28;20552;-74
2021/01/06 04:59:09;;;;;;;39.83;23.73;;;1.40;99.90;;;;;;4909031;28;20296;-75
2021/01/06 05:02:00;;;;;;;37.60;25.57;;;1.40;99.90;;;;;;4903820;28;20613;-74
2021/01/06 05:04:40;;;;;;;35.60;23.13;;;1.40;99.90;;;;;;4908046;28;20207;-74
2021/01/06 05:07:06;;;;;;;32.97;22.97;;;1.50;99.90;;;;;;4907241;28;20258;-75
2021/01/06 05:09:38;;;;;;;32.97;22.93;;;1.40;99.90;;;;;;4905618;28;20188;-75
2021/01/06 05:12:13;;;;;;;32.13;23.33;;;1.50;99.90;;;;;;4914238;28;20214;-74
2021/01/06 05:14:42;;;;;;;32.87;21.80;;;1.50;99.90;;;;;;4905084;28;20234;-74
2021/01/06 05:17:04;;;;;;;36.73;22.97;;;1.50;99.90;;;;;;4904887;28;20758;-74
2021/01/06 05:19:31;;;;;;;30.43;20.23;;;1.50;99.90;;;;;;4904071;28;20650;-76
2021/01/06 05:21:54;;;;;;;27.63;19.23;;;1.50;99.90;;;;;;4910313;28;20203;-75
2021/01/06 05:24:22;;;;;;;27.73;18.47;;;1.50;99.90;;;;;;4907122;28;20210;-74
2021/01/06 05:26:49;;;;;;;24.30;16.40;;;1.50;99.90;;;;;;4906977;28;20227;-76
2021/01/06 05:29:23;;;;;;;25.00;17.57;;;1.60;99.90;;;;;;4912882;28;20677;-74
2021/01/06 05:31:46;;;;;;;23.87;16.67;;;1.50;99.90;;;;;;4905171;28;20181;-75
2021/01/06 05:34:08;;;;;;;23.17;17.13;;;1.60;99.90;;;;;;4905149;28;20223;-73
2021/01/06 05:36:32;;;;;;;22.20;16.13;;;1.60;99.90;;;;;;4906239;28;20192;-74
2021/01/06 05:38:54;;;;;;;22.97;15.97;;;1.60;99.90;;;;;;4931148;28;20195;-73
2021/01/06 05:41:17;;;;;;;21.70;15.93;;;1.60;99.90;;;;;;4905854;28;20254;-74
2021/01/06 05:43:44;;;;;;;22.17;15.87;;;1.60;99.90;;;;;;4907369;28;20184;-74
2021/01/06 05:46:13;;;;;;;24.50;14.67;;;1.60;99.90;;;;;;4905211;28;20234;-74
2021/01/06 05:48:38;;;;;;;19.90;15.30;;;1.70;99.90;;;;;;4898446;28;20200;-75
2021/01/06 05:51:04;;;;;;;19.97;13.90;;;1.60;99.90;;;;;;4908114;28;20663;-74
2021/01/06 05:53:35;;;;;;;17.93;12.73;;;1.60;99.90;;;;;;4904071;28;20228;-74
2021/01/06 05:56:01;;;;;;;19.10;13.17;;;1.60;99.90;;;;;;4904285;28;20190;-74
2021/01/06 05:58:27;;;;;;;18.70;13.43;;;1.60;99.20;;;;;;4910104;28;20569;-74
2021/01/06 06:00:59;;;;;;;17.63;12.73;;;1.60;98.80;;;;;;4904292;28;20229;-74
2021/01/06 06:03:36;;;;;;;20.17;14.37;;;1.60;98.40;;;;;;4911515;28;20204;-74
2021/01/06 06:06:04;;;;;;;27.67;17.93;;;1.60;97.70;;;;;;4888657;28;20570;-74
2021/01/06 06:08:46;;;;;;;31.23;19.80;;;1.60;96.70;;;;;;4902123;28;20196;-73
2021/01/06 06:11:48;;;;;;;30.60;21.33;;;1.60;96.80;;;;;;4904207;28;20202;-75
2021/01/06 06:14:41;;;;;;;29.20;19.40;;;1.60;97.20;;;;;;4888085;28;20230;-75
2021/01/06 06:17:12;;;;;;;34.37;22.50;;;1.60;97.40;;;;;;4901647;28;20264;-73
2021/01/06 06:19:56;;;;;;;31.53;20.83;;;1.60;97.20;;;;;;4890403;28;20648;-75
2021/01/06 06:22:24;;;;;;;30.60;20.87;;;1.60;96.00;;;;;;4900143;28;20200;-74
2021/01/06 06:24:58;;;;;;;33.13;20.27;;;1.50;95.30;;;;;;4899897;28;20195;-75
2021/01/06 06:27:38;;;;;;;31.03;19.97;;;1.40;95.20;;;;;;4890565;28;20267;-74
2021/01/06 06:30:26;;;;;;;26.40;17.37;;;1.50;95.60;;;;;;4898208;28;20301;-74
2021/01/06 06:32:51;;;;;;;25.60;17.23;;;1.40;95.80;;;;;;4901437;28;20188;-73
2021/01/06 06:35:21;;;;;;;26.77;17.20;;;1.40;95.90;;;;;;4904599;28;20191;-74
2021/01/06 06:37:49;;;;;;;25.83;16.77;;;1.30;96.70;;;;;;4905828;28;20238;-74
2021/01/06 06:40:12;;;;;;;26.57;17.70;;;1.30;96.50;;;;;;4904835;28;20184;-74
2021/01/06 06:42:45;;;;;;;30.83;19.30;;;1.30;96.60;;;;;;4906953;28;20226;-76
2021/01/06 06:45:30;;;;;;;26.10;18.40;;;1.30;97.30;;;;;;4904012;28;20545;-74
2021/01/06 06:48:10;;;;;;;28.57;18.83;;;1.40;98.40;;;;;;4902096;28;20324;-74
2021/01/06 06:50:51;;;;;;;26.63;18.23;;;1.30;98.40;;;;;;4911106;28;20177;-75
2021/01/06 06:53:21;;;;;;;23.00;17.67;;;1.20;97.30;;;;;;4901640;28;20257;-73
2021/01/06 06:55:49;;;;;;;28.53;18.93;;;1.10;95.80;;;;;;4906109;28;20250;-74
2021/01/06 06:58:28;;;;;;;25.80;17.40;;;3.60;94.80;;;;;;4902506;28;20254;-75
2021/01/06 07:00:51;;;;;;;25.60;18.03;;;0.80;93.70;;;;;;4902098;28;20545;-74
2021/01/06 07:03:14;;;;;;;24.83;16.90;;;0.70;93.40;;;;;;4903808;28;20739;-74
2021/01/06 07:05:42;;;;;;;24.93;17.27;;;0.50;93.50;;;;;;4898681;28;20622;-74
2021/01/06 07:08:09;;;;;;;29.73;20.43;;;0.40;94.00;;;;;;4903993;28;20612;-75
2021/01/06 07:10:33;;;;;;;28.10;18.57;;;0.30;94.70;;;;;;4906423;28;20184;-74
2021/01/06 07:13:01;;;;;;;28.07;18.60;;;0.20;96.40;;;;;;4901126;28;20246;-76
2021/01/06 07:15:30;;;;;;;27.13;18.37;;;0.20;98.00;;;;;;4902456;28;20192;-74
2021/01/06 07:17:53;;;;;;;32.30;19.63;;;0.10;99.50;;;;;;4903178;28;21020;-73
2021/01/06 07:20:32;;;;;;;27.50;18.00;;;0.10;99.90;;;;;;4885592;28;20633;-74
2021/01/06 07:23:03;;;;;;;31.03;18.63;;;0.10;99.90;;;;;;4901612;28;20659;-74
2021/01/06 07:25:30;;;;;;;27.63;17.20;;;0.00;99.90;;;;;;4902254;28;20184;-75
2021/01/06 07:27:55;;;;;;;34.87;21.77;;;0.00;99.90;;;;;;4900539;28;21182;-74
2021/01/06 07:30:28;;;;;;;27.47;17.63;;;0.10;99.90;;;;;;4903804;28;20252;-74
2021/01/06 07:32:50;;;;;;;26.57;17.80;;;0.10;99.90;;;;;;4902870;28;20194;-74
2021/01/06 07:35:23;;;;;;;24.47;16.70;;;0.20;99.90;;;;;;4897248;28;20652;-75
2021/01/06 07:37:47;;;;;;;44.37;27.27;;;0.30;99.90;;;;;;4903471;28;20220;-75
2021/01/06 07:40:23;;;;;;;35.33;22.63;;;0.40;99.90;;;;;;4903076;28;20552;-75
2021/01/06 07:42:48;;;;;;;45.30;29.97;;;0.60;99.90;;;;;;4905122;28;20250;-75
2021/01/06 07:45:31;;;;;;;38.93;26.50;;;0.50;99.90;;;;;;4884863;28;20219;-75
2021/01/06 07:48:01;;;;;;;39.50;25.33;;;0.90;99.90;;;;;;4890123;28;20284;-75
2021/01/06 07:50:25;;;;;;;37.33;24.03;;;1.10;99.90;;;;;;4903166;28;20250;-75
2021/01/06 07:52:53;;;;;;;35.63;25.07;;;1.30;99.90;;;;;;4902088;28;20227;-74
2021/01/06 07:55:31;;;;;;;39.33;27.13;;;1.50;99.90;;;;;;4906808;28;20229;-75
2021/01/06 07:57:57;;;;;;;44.13;28.73;;;1.80;99.90;;;;;;4906021;28;20642;-74
2021/01/06 08:00:28;;;;;;;30.60;20.47;;;1.70;99.90;;;;;;4898490;28;20625;-73
2021/01/06 08:02:56;;;;;;;32.93;22.33;;;1.80;99.90;;;;;;4901659;28;20785;-74
2021/01/06 08:05:26;;;;;;;28.73;21.03;;;1.70;99.90;;;;;;4902940;28;20695;-73
2021/01/06 08:07:49;;;;;;;33.60;23.07;;;1.70;99.90;;;;;;4907640;28;20282;-74
2021/01/06 08:10:22;;;;;;;27.20;18.17;;;1.70;99.90;;;;;;4905343;28;20193;-74
2021/01/06 08:12:44;;;;;;;26.03;18.10;;;1.60;99.90;;;;;;4904399;28;20666;-75
2021/01/06 08:15:16;;;;;;;26.57;17.93;;;1.60;99.90;;;;;;4904910;28;20238;-74
2021/01/06 08:17:45;;;;;;;29.33;19.07;;;1.60;99.90;;;;;;4908577;28;20168;-75
2021/01/06 08:20:11;;;;;;;36.43;22.10;;;1.60;98.10;;;;;;4907190;28;20603;-75
2021/01/06 08:22:41;;;;;;;47.77;24.83;;;1.60;97.60;;;;;;4902049;28;20241;-74
2021/01/06 08:25:16;;;;;;;30.47;20.90;;;1.60;97.40;;;;;;4907850;28;20261;-73
2021/01/06 08:27:38;;;;;;;25.30;17.83;;;1.60;97.70;;;;;;4901247;28;20268;-74
2021/01/06 08:30:17;;;;;;;26.17;16.33;;;1.60;98.10;;;;;;4908358;28;20191;-74
2021/01/06 08:32:40;;;;;;;39.17;20.17;;;1.70;98.10;;;;;;4900704;28;20184;-75
2021/01/06 08:35:07;;;;;;;37.07;20.40;;;1.70;97.00;;;;;;4908888;28;20189;-73
2021/01/06 08:37:33;;;;;;;21.60;14.30;;;1.70;95.40;;;;;;4901947;28;20682;-74
2021/01/06 08:39:58;;;;;;;19.90;13.03;;;1.80;90.20;;;;;;4909165;28;20717;-76
2021/01/06 08:42:23;;;;;;;21.80;15.00;;;1.80;90.10;;;;;;4904081;28;20624;-73
2021/01/06 08:44:49;;;;;;;25.50;17.13;;;1.80;89.40;;;;;;4905608;28;20189;-74
2021/01/06 08:47:13;;;;;;;48.20;29.57;;;1.80;90.70;;;;;;4913268;28;20253;-73
2021/01/06 08:49:38;;;;;;;23.30;15.07;;;1.90;91.50;;;;;;4905972;28;20654;-75
2021/01/06 08:52:21;;;;;;;22.53;14.47;;;1.90;91.50;;;;;;4905257;28;20189;-73
2021/01/06 08:54:45;;;;;;;25.87;14.00;;;1.90;91.60;;;;;;4913958;28;20666;-73
2021/01/06 08:57:20;;;;;;;35.40;22.60;;;2.00;91.80;;;;;;4917186;28;20653;-74
2021/01/06 08:59:43;;;;;;;22.77;16.03;;;2.10;90.70;;;;;;4907741;28;20317;-73
2021/01/06 09:02:17;;;;;;;17.20;12.43;;;2.10;89.80;;;;;;4898656;28;20227;-73
2021/01/06 09:04:41;;;;;;;15.37;11.27;;;2.30;89.20;;;;;;4897576;28;20192;-74
2021/01/06 09:07:21;;;;;;;19.60;14.20;;;2.30;88.30;;;;;;4899147;28;20831;-73
2021/01/06 09:10:13;;;;;;;17.33;12.63;;;2.40;86.00;;;;;;4897901;28;20246;-73
2021/01/06 09:12:53;;;;;;;16.63;12.37;;;2.50;82.90;;;;;;4916904;28;20176;-74
2021/01/06 09:15:26;;;;;;;15.53;11.40;;;2.60;79.50;;;;;;4912464;28;20187;-78
2021/01/06 09:17:53;;;;;;;15.00;10.40;;;2.60;75.70;;;;;;4917295;28;20626;-73
2021/01/06 09:20:23;;;;;;;12.97;10.07;;;2.70;71.90;;;;;;4932832;28;20248;-74
2021/01/06 09:22:46;;;;;;;17.20;12.57;;;2.70;67.90;;;;;;4916251;28;20707;-74
2021/01/06 09:25:12;;;;;;;49.70;26.50;;;2.80;62.40;;;;;;4913266;28;20192;-80
2021/01/06 09:27:39;;;;;;;71.00;35.10;;;2.80;58.50;;;;;;4915459;28;20273;-78
2021/01/06 09:30:06;;;;;;;56.10;27.73;;;2.80;56.60;;;;;;4899718;28;20201;-76
2021/01/06 09:32:34;;;;;;;33.40;18.73;;;2.90;52.40;;;;;;4906962;28;20237;-73
2021/01/06 09:35:00;;;;;;;21.70;15.47;;;2.90;48.90;;;;;;4899011;28;20200;-73
2021/01/06 09:37:26;;;;;;;36.00;20.33;;;3.00;44.50;;;;;;4906411;28;20192;-73
2021/01/06 09:39:48;;;;;;;29.20;18.13;;;3.00;38.60;;;;;;4916145;28;20234;-72
2021/01/06 09:42:13;;;;;;;28.70;20.30;;;3.00;36.60;;;;;;4911493;28;20595;-74
2021/01/06 09:44:35;;;;;;;28.23;19.93;;;3.00;34.70;;;;;;4901490;28;20209;-73
2021/01/06 09:47:07;;;;;;;25.37;18.30;;;3.00;34.50;;;;;;4902203;28;20215;-73
2021/01/06 09:49:34;;;;;;;27.93;19.00;;;2.90;28.10;;;;;;4904329;28;20219;-73
2021/01/06 09:51:59;;;;;;;32.90;20.80;;;2.90;27.90;;;;;;4913822;28;20184;-74
2021/01/06 09:54:22;;;;;;;31.67;22.30;;;2.90;28.10;;;;;;4914244;28;20224;-74
2021/01/06 09:56:45;;;;;;;31.70;23.87;;;2.90;27.20;;;;;;4898475;28;20705;-77
2021/01/06 09:59:19;;;;;;;25.50;18.97;;;2.90;27.20;;;;;;4894038;28;20555;-72
2021/01/06 10:01:49;;;;;;;25.63;17.83;;;2.80;30.80;;;;;;4905538;28;20192;-82
2021/01/06 10:04:17;;;;;;;29.10;21.20;;;2.80;32.90;;;;;;4915606;28;20192;-76
2021/01/06 10:06:49;;;;;;;21.37;15.67;;;2.90;35.20;;;;;;4913348;28;20184;-81
2021/01/06 10:09:21;;;;;;;20.43;15.30;;;2.90;37.20;;;;;;4896160;28;20189;-74
2021/01/06 10:11:57;;;;;;;21.87;15.87;;;3.00;38.50;;;;;;4913238;28;20188;-79
2021/01/06 10:14:44;;;;;;;20.80;14.30;;;3.20;38.90;;;;;;4897763;28;20173;-74
2021/01/06 10:17:11;;;;;;;22.67;14.87;;;3.30;29.50;;;;;;4910161;28;20261;-73
2021/01/06 10:19:40;;;;;;;23.07;15.43;;;3.50;29.80;;;;;;4912829;28;20206;-73
2021/01/06 10:22:14;;;;;;;24.67;16.97;;;3.60;26.60;;;;;;4915158;28;20253;-74
2021/01/06 10:24:52;;;;;;;24.03;17.33;;;3.70;26.30;;;;;;4914429;28;20645;-80
2021/01/06 10:27:28;;;;;;;18.90;13.37;;;4.00;24.10;;;;;;4913036;28;20208;-73
2021/01/06 10:29:52;;;;;;;20.97;14.73;;;4.00;18.90;;;;;;4895024;28;20206;-74
2021/01/06 10:32:31;;;;;;;26.97;19.70;;;4.10;13.00;;;;;;4913583;28;20303;-73
2021/01/06 10:35:27;;;;;;;25.77;18.83;;;4.20;8.20;;;;;;4914147;28;20187;-76
2021/01/06 10:37:49;;;;;;;23.40;17.13;;;4.20;1.00;;;;;;4910117;28;20281;-73
2021/01/06 10:40:17;;;;;;;19.43;13.67;;;4.20;1.00;;;;;;4913273;28;20730;-74
2021/01/06 10:42:39;;;;;;;19.23;12.93;;;4.10;1.00;;;;;;4907803;28;20237;-73
2021/01/06 10:45:11;;;;;;;19.53;13.60;;;4.10;1.00;;;;;;4895781;28;20271;-74
2021/01/06 10:47:41;;;;;;;17.30;13.67;;;4.10;1.00;;;;;;4892741;28;20217;-73
2021/01/06 10:50:29;;;;;;;16.00;11.73;;;4.00;1.00;;;;;;4896710;28;20250;-73
2021/01/06 10:53:02;;;;;;;14.90;10.50;;;3.90;1.00;;;;;;4894160;28;20334;-73
2021/01/06 10:55:42;;;;;;;13.47;9.80;;;4.00;1.00;;;;;;4904202;28;20188;-73
2021/01/06 10:58:13;;;;;;;18.27;13.83;;;4.00;2.30;;;;;;4904163;28;20192;-73
2021/01/06 11:00:51;;;;;;;16.37;11.77;;;4.40;10.80;;;;;;4910640;28;20363;-74
2021/01/06 11:03:37;;;;;;;16.97;11.57;;;4.40;11.90;;;;;;4912954;28;20188;-73
2021/01/06 11:06:12;;;;;;;15.63;10.63;;;4.60;7.90;;;;;;4912454;28;20257;-73
2021/01/06 11:08:53;;;;;;;18.13;13.70;;;5.00;1.30;;;;;;4895576;28;20247;-74
2021/01/06 11:11:39;;;;;;;20.23;15.10;;;5.10;1.00;;;;;;4909250;28;20320;-74
2021/01/06 11:14:18;;;;;;;20.93;14.63;;;5.30;1.00;;;;;;4911516;28;20639;-74
2021/01/06 11:16:45;;;;;;;21.23;15.00;;;5.60;1.00;;;;;;4911717;28;20826;-82
2021/01/06 11:19:36;;;;;;;23.43;17.10;;;5.80;1.00;;;;;;4897371;28;20192;-74
2021/01/06 11:22:05;;;;;;;32.20;23.13;;;5.90;1.00;;;;;;4901823;28;20213;-74
2021/01/06 11:24:34;;;;;;;77.87;51.00;;;6.00;1.00;;;;;;4913380;28;20176;-74
2021/01/06 11:26:56;;;;;;;50.93;35.30;;;5.90;1.00;;;;;;4907802;28;20185;-72
2021/01/06 11:29:48;;;;;;;49.93;34.77;;;5.80;1.00;;;;;;4892465;28;20677;-73
2021/01/06 11:32:38;;;;;;;61.40;40.77;;;5.70;1.00;;;;;;4900842;28;20184;-74
2021/01/06 11:35:25;;;;;;;42.40;30.40;;;5.60;1.00;;;;;;4893454;28;20638;-73
2021/01/06 11:37:49;;;;;;;53.87;34.97;;;5.50;1.00;;;;;;4912365;28;20227;-73
2021/01/06 11:40:31;;;;;;;44.33;31.67;;;5.40;1.00;;;;;;4910964;28;20237;-74
2021/01/06 11:43:09;;;;;;;27.03;19.23;;;5.30;1.00;;;;;;4913647;28;20253;-73
2021/01/06 11:45:44;;;;;;;21.13;15.67;;;5.30;1.00;;;;;;4909020;28;20204;-74
2021/01/06 11:48:26;;;;;;;16.37;12.20;;;5.20;1.00;;;;;;4913262;28;20207;-73
2021/01/06 11:50:48;;;;;;;16.97;12.60;;;5.10;1.00;;;;;;4896104;28;20246;-73
2021/01/06 11:53:18;;;;;;;19.17;14.30;;;5.00;1.00;;;;;;4895429;28;20563;-74
2021/01/06 11:55:50;;;;;;;25.20;17.13;;;4.90;1.00;;;;;;4892113;28;20247;-78
2021/01/06 11:58:20;;;;;;;19.10;15.23;;;4.70;1.00;;;;;;4894886;28;20711;-73
2021/01/06 12:01:29;;;;;;;22.33;17.47;;;4.60;1.00;;;;;;4890635;28;20282;-74
2021/01/06 12:04:17;;;;;;;26.17;19.03;;;4.50;1.00;;;;;;4912881;28;20196;-74
2021/01/06 12:06:51;;;;;;;36.07;23.73;;;4.50;1.00;;;;;;4912717;28;20177;-73
2021/01/06 12:09:28;;;;;;;47.83;32.40;;;4.40;1.00;;;;;;4893710;28;20250;-73
2021/01/06 12:11:59;;;;;;;75.83;50.83;;;4.40;1.00;;;;;;4911649;28;20537;-74
2021/01/06 12:14:28;;;;;;;73.70;46.67;;;4.30;1.00;;;;;;4886738;28;20247;-75
2021/01/06 12:16:58;;;;;;;81.20;42.33;;;4.30;1.00;;;;;;4894312;28;20317;-73
2021/01/06 12:19:29;;;;;;;32.23;21.50;;;4.30;1.00;;;;;;4895104;28;20188;-74
2021/01/06 12:22:09;;;;;;;20.47;16.13;;;4.30;1.00;;;;;;4909906;28;20200;-75
2021/01/06 12:25:00;;;;;;;17.00;12.00;;;4.20;1.00;;;;;;4900409;28;20633;-77
2021/01/06 12:27:34;;;;;;;14.93;10.83;;;4.20;6.10;;;;;;4895229;28;20223;-73
2021/01/06 12:30:01;;;;;;;15.03;11.40;;;4.10;7.10;;;;;;4912763;28;20629;-73
2021/01/06 12:32:36;;;;;;;15.10;11.07;;;4.20;10.20;;;;;;4907147;28;20758;-76
2021/01/06 12:35:20;;;;;;;16.73;12.00;;;4.20;12.50;;;;;;4892016;28;20196;-74
2021/01/06 12:37:44;;;;;;;18.30;12.40;;;4.10;13.40;;;;;;4898858;28;20204;-74
2021/01/06 12:40:21;;;;;;;16.07;12.13;;;4.10;14.90;;;;;;4894250;28;20184;-75
2021/01/06 12:42:52;;;;;;;18.93;13.83;;;4.00;17.80;;;;;;4904939;28;20196;-74
2021/01/06 12:45:21;;;;;;;27.13;18.53;;;4.00;23.20;;;;;;4908070;28;20185;-74
2021/01/06 12:47:52;;;;;;;19.63;13.70;;;4.00;23.70;;;;;;4912718;28;20216;-74
2021/01/06 12:50:20;;;;;;;26.03;17.80;;;4.00;25.30;;;;;;4898127;28;20230;-74